KGSB

Seymour Johnson AFB Airport

Goldsboro, North Carolina, USA
METAR KGSB 231956Z AUTO 29008KT 10SM CLR 21/08 A3008 RMK AO2 SLP189 T02130079 $
Observed Flight Rules
Oct-23 @ 19:56 UTC (36 minutes ago) Visual Flight Rules
Wind Visibility Clouds
290° at 8 knots 10 miles
  • Clear skies
Temperatures Readings
Current 21°C / 70°F
Dewpoint 8°C / 46°F
Humidity 43%
Altimeter 30.08" Hg
Pressure 1018.9 hPa
Elevation 33
METAR KGSB 231956Z AUTO 29008KT 10SM CLR 21/08 A3008 RMK AO2 SLP189 T02130079 $
Observed Flight Rules
Oct-23 @ 19:56 UTC
(36 minutes ago)
VFR
Wind Visibility
290° at 8 knots 10 miles
Clouds
  • Clear skies
Temperature Dewpoint
21°C / 70°F 8°C / 46°F
Humidity Altimeter Pressure
43% 30.08" Hg 1018.9 hPa